Time;durP1;ratioP1;P1;durP2;ratioP2;P2;SDS_P1;SDS_P2;PMS_P1;PMS_P2;Temp;Humidity;BMP_temperature;BMP_pressure;BME280_temperature;BME280_humidity;BME280_pressure;Samples;Min_cycle;Max_cycle;Signal;HPM_P1;HPM_P2
2023/08/25 00:02:15;;;;;;;6.68;3.90;;;24.50;60.50;;;;;;5009347;28;20087;-63
2023/08/25 00:04:41;;;;;;;4.88;4.05;;;24.50;60.40;;;;;;4999410;28;20033;-61
2023/08/25 00:07:07;;;;;;;5.50;3.67;;;24.50;60.20;;;;;;5002098;28;20034;-63
2023/08/25 00:09:32;;;;;;;6.82;4.47;;;24.50;60.10;;;;;;5000109;28;20117;-63
2023/08/25 00:11:58;;;;;;;7.68;4.22;;;24.50;60.60;;;;;;5004424;28;20022;-63
2023/08/25 00:14:23;;;;;;;6.45;3.85;;;24.50;60.60;;;;;;5001626;28;20041;-63
2023/08/25 00:16:49;;;;;;;6.20;4.07;;;24.50;60.50;;;;;;5005386;28;20248;-64
2023/08/25 00:19:17;;;;;;;4.65;4.13;;;24.50;60.50;;;;;;5013679;28;20117;-63
2023/08/25 00:21:42;;;;;;;5.80;3.95;;;24.50;60.40;;;;;;5014049;28;20052;-62
2023/08/25 00:24:08;;;;;;;8.25;4.10;;;24.50;60.40;;;;;;5009695;28;20019;-63
2023/08/25 00:26:33;;;;;;;5.72;3.97;;;24.50;60.10;;;;;;5009113;28;20062;-62
2023/08/25 00:28:59;;;;;;;7.03;4.07;;;24.50;60.90;;;;;;5010327;28;20092;-63
2023/08/25 00:31:24;;;;;;;6.38;4.55;;;24.50;60.70;;;;;;5002255;28;20109;-64
2023/08/25 00:33:50;;;;;;;4.93;4.05;;;24.50;60.60;;;;;;4998658;28;20504;-61
2023/08/25 00:36:16;;;;;;;7.78;3.90;;;24.50;60.80;;;;;;5001607;28;20041;-64
2023/08/25 00:38:42;;;;;;;4.82;3.65;;;24.50;60.70;;;;;;4997155;28;20088;-62
2023/08/25 00:41:08;;;;;;;4.72;3.63;;;24.50;61.10;;;;;;4998106;28;20516;-64
2023/08/25 00:43:34;;;;;;;6.15;4.38;;;24.50;61.40;;;;;;5007718;28;20036;-62
2023/08/25 00:46:01;;;;;;;4.72;4.25;;;24.50;61.30;;;;;;5002793;28;20512;-64
2023/08/25 00:48:27;;;;;;;5.63;4.30;;;24.50;61.20;;;;;;5006749;28;20042;-64
2023/08/25 00:50:54;;;;;;;3.92;3.35;;;24.50;61.20;;;;;;5002465;28;20037;-64
2023/08/25 00:53:22;;;;;;;7.78;3.80;;;24.50;61.30;;;;;;5006619;28;20030;-63
2023/08/25 00:55:48;;;;;;;5.38;3.65;;;24.40;61.50;;;;;;5005285;28;20053;-64
2023/08/25 00:58:16;;;;;;;5.20;3.90;;;24.40;61.50;;;;;;5001385;28;20038;-64
2023/08/25 01:00:44;;;;;;;6.70;4.10;;;24.40;61.70;;;;;;5005034;28;20496;-63
2023/08/25 01:03:10;;;;;;;4.53;3.90;;;24.40;61.60;;;;;;5008310;28;20042;-63
2023/08/25 01:05:36;;;;;;;5.80;4.47;;;24.40;61.70;;;;;;5009158;28;20562;-63
2023/08/25 01:08:05;;;;;;;5.47;4.60;;;24.40;61.90;;;;;;5010204;28;20033;-63
2023/08/25 01:10:41;;;;;;;6.97;4.07;;;24.40;62.10;;;;;;5002378;28;20093;-63
2023/08/25 01:13:16;;;;;;;9.63;5.25;;;24.40;61.70;;;;;;5002495;28;20031;-61
2023/08/25 01:15:45;;;;;;;6.20;5.10;;;24.40;61.70;;;;;;4999749;28;20084;-64
2023/08/25 01:18:17;;;;;;;7.88;4.65;;;24.40;62.10;;;;;;5010419;28;20489;-63
2023/08/25 01:20:46;;;;;;;6.30;4.40;;;24.40;62.30;;;;;;5002744;28;20038;-59
2023/08/25 01:23:18;;;;;;;4.75;3.92;;;24.40;62.20;;;;;;5005008;28;20057;-64
2023/08/25 01:25:46;;;;;;;11.15;4.97;;;24.40;62.10;;;;;;5001823;28;20571;-63
2023/08/25 01:28:12;;;;;;;10.68;5.15;;;24.40;62.50;;;;;;5007647;28;20069;-63
2023/08/25 01:30:38;;;;;;;8.48;4.50;;;24.40;62.60;;;;;;4999078;28;20058;-62
2023/08/25 01:33:04;;;;;;;5.55;4.25;;;24.40;62.70;;;;;;5006854;28;20109;-63
2023/08/25 01:36:02;;;;;;;7.93;4.93;;;24.40;62.60;;;;;;5004344;28;20034;-56
2023/08/25 01:38:30;;;;;;;7.93;4.95;;;24.30;62.60;;;;;;4976716;28;20034;-64
2023/08/25 01:41:01;;;;;;;9.52;4.80;;;24.40;63.00;;;;;;4997418;28;20425;-57
2023/08/25 01:43:32;;;;;;;6.85;4.85;;;24.30;62.90;;;;;;4992816;28;20425;-63
2023/08/25 01:45:59;;;;;;;6.10;5.22;;;24.30;63.20;;;;;;4991871;28;20112;-61
2023/08/25 01:48:26;;;;;;;4.80;4.15;;;24.30;63.30;;;;;;4981868;28;20549;-63
2023/08/25 01:50:52;;;;;;;9.52;5.07;;;24.30;63.30;;;;;;4997429;28;20039;-54
2023/08/25 01:53:17;;;;;;;8.02;5.22;;;24.30;63.40;;;;;;4992914;28;20536;-64
2023/08/25 01:55:43;;;;;;;7.90;5.43;;;24.30;63.40;;;;;;4980353;28;20029;-58
2023/08/25 01:58:09;;;;;;;5.82;5.28;;;24.30;63.60;;;;;;4991026;28;20045;-63
2023/08/25 02:00:34;;;;;;;6.75;4.95;;;24.30;63.70;;;;;;4997142;28;20037;-60
2023/08/25 02:03:00;;;;;;;7.63;4.78;;;24.30;63.60;;;;;;4991151;28;20045;-55
2023/08/25 02:05:25;;;;;;;6.53;5.07;;;24.30;63.60;;;;;;5001960;28;20057;-56
2023/08/25 02:07:51;;;;;;;5.65;4.70;;;24.30;64.00;;;;;;5000297;28;20034;-57
2023/08/25 02:10:16;;;;;;;6.05;4.75;;;24.30;63.90;;;;;;5003133;28;20480;-63
2023/08/25 02:12:42;;;;;;;7.10;4.55;;;24.30;64.00;;;;;;4993780;28;20033;-63
2023/08/25 02:15:08;;;;;;;6.20;4.63;;;24.30;64.10;;;;;;5000729;28;20456;-59
2023/08/25 02:17:33;;;;;;;4.90;4.40;;;24.30;64.00;;;;;;5008517;28;20108;-63
2023/08/25 02:19:59;;;;;;;6.60;5.00;;;24.30;64.10;;;;;;5010313;28;20560;-63
2023/08/25 02:22:24;;;;;;;6.82;5.22;;;24.30;64.30;;;;;;5005764;28;20039;-55
2023/08/25 02:24:50;;;;;;;7.32;5.03;;;24.30;64.20;;;;;;5004055;28;20145;-63
2023/08/25 02:27:16;;;;;;;6.72;4.75;;;24.30;64.20;;;;;;5008319;28;20104;-63
2023/08/25 02:29:41;;;;;;;5.63;4.57;;;24.30;64.30;;;;;;5004280;28;20030;-62
2023/08/25 02:32:07;;;;;;;4.97;4.47;;;24.40;64.20;;;;;;5004958;28;20030;-63
2023/08/25 02:34:32;;;;;;;4.53;3.92;;;24.40;64.30;;;;;;5007802;28;20037;-59
2023/08/25 02:36:58;;;;;;;7.88;4.47;;;24.30;64.40;;;;;;5011507;28;20040;-61
2023/08/25 02:39:23;;;;;;;6.45;4.93;;;24.30;64.20;;;;;;4984906;28;20212;-63
2023/08/25 02:41:49;;;;;;;5.68;4.35;;;24.30;64.50;;;;;;5015360;28;20026;-59
2023/08/25 02:44:15;;;;;;;5.10;4.50;;;24.40;64.40;;;;;;5016689;28;20026;-59
2023/08/25 02:46:42;;;;;;;4.80;4.40;;;24.40;64.40;;;;;;4992199;28;20537;-59
2023/08/25 02:49:07;;;;;;;5.80;4.20;;;24.30;64.50;;;;;;5012183;28;20501;-59
2023/08/25 02:51:33;;;;;;;5.45;4.07;;;24.40;64.90;;;;;;5000968;28;20045;-57
2023/08/25 02:53:58;;;;;;;7.75;4.97;;;24.30;64.70;;;;;;4999289;28;20097;-61
2023/08/25 02:56:24;;;;;;;5.50;4.43;;;24.30;64.50;;;;;;4998822;28;20145;-60
2023/08/25 02:58:49;;;;;;;5.85;4.28;;;24.30;64.70;;;;;;4996486;28;20034;-63
2023/08/25 03:01:15;;;;;;;5.55;4.63;;;24.40;64.80;;;;;;5002112;28;20627;-59
2023/08/25 03:03:40;;;;;;;6.60;5.82;;;24.40;64.90;;;;;;4991728;28;20042;-63
2023/08/25 03:06:06;;;;;;;4.68;4.13;;;24.30;64.90;;;;;;5005537;28;20030;-60
2023/08/25 03:08:31;;;;;;;6.32;4.45;;;24.30;65.20;;;;;;4991116;28;20436;-58
2023/08/25 03:11:00;;;;;;;5.55;4.70;;;24.30;65.20;;;;;;4992149;28;20026;-57
2023/08/25 03:13:26;;;;;;;5.95;4.80;;;24.30;65.40;;;;;;5002667;28;20465;-63
2023/08/25 03:15:54;;;;;;;5.88;4.07;;;24.30;65.40;;;;;;4994926;28;20041;-63
2023/08/25 03:18:19;;;;;;;7.78;4.80;;;24.30;65.70;;;;;;4987836;28;20034;-63
2023/08/25 03:20:50;;;;;;;6.57;4.80;;;24.30;65.70;;;;;;5004953;28;20034;-58
2023/08/25 03:23:16;;;;;;;7.88;4.57;;;24.30;65.70;;;;;;5005641;28;20525;-57
2023/08/25 03:25:41;;;;;;;5.07;4.57;;;24.20;65.70;;;;;;4990920;28;20109;-63
2023/08/25 03:28:07;;;;;;;6.03;4.72;;;24.30;65.80;;;;;;4999974;28;20030;-63
2023/08/25 03:30:33;;;;;;;5.30;4.75;;;24.30;65.80;;;;;;4999071;28;20047;-60
2023/08/25 03:32:58;;;;;;;5.57;4.57;;;24.30;65.80;;;;;;4999698;28;20034;-58
2023/08/25 03:35:24;;;;;;;4.50;4.10;;;24.30;65.80;;;;;;5009433;28;20125;-63
2023/08/25 03:37:49;;;;;;;5.65;4.53;;;24.30;65.90;;;;;;5006263;28;20034;-59
2023/08/25 03:40:15;;;;;;;5.38;3.97;;;24.30;66.40;;;;;;5004833;28;20069;-59
2023/08/25 03:42:40;;;;;;;4.65;4.18;;;24.20;65.80;;;;;;5001413;28;20137;-60
2023/08/25 03:45:07;;;;;;;7.30;4.18;;;24.30;65.70;;;;;;5005934;28;20033;-64
2023/08/25 03:47:33;;;;;;;6.90;3.80;;;24.30;65.70;;;;;;5007709;28;20642;-57
2023/08/25 03:49:58;;;;;;;5.35;3.90;;;24.30;65.70;;;;;;5007687;28;20041;-64
2023/08/25 03:52:24;;;;;;;4.63;4.18;;;24.20;65.70;;;;;;4997204;28;20034;-64
2023/08/25 03:54:49;;;;;;;4.32;3.83;;;24.20;65.70;;;;;;4997982;28;20034;-64
2023/08/25 03:57:14;;;;;;;4.30;3.90;;;24.20;65.60;;;;;;5003913;28;20034;-59
2023/08/25 03:59:40;;;;;;;4.63;3.95;;;24.20;65.60;;;;;;4990106;28;20065;-63
2023/08/25 04:02:06;;;;;;;5.18;3.83;;;24.20;65.70;;;;;;5003856;28;20037;-63
2023/08/25 04:04:32;;;;;;;4.75;3.55;;;24.20;65.90;;;;;;5004279;28;20076;-59
2023/08/25 04:06:58;;;;;;;3.95;3.53;;;24.20;65.80;;;;;;5004183;28;20023;-64
2023/08/25 04:09:23;;;;;;;5.72;3.53;;;24.20;66.10;;;;;;4997975;28;20045;-62
2023/08/25 04:11:49;;;;;;;5.18;4.25;;;24.20;66.10;;;;;;4995520;28;20077;-63
2023/08/25 04:14:14;;;;;;;5.72;3.47;;;24.20;66.00;;;;;;4991273;28;20053;-64
2023/08/25 04:16:40;;;;;;;4.10;3.17;;;24.20;66.20;;;;;;5004217;28;20041;-59
2023/08/25 04:19:05;;;;;;;3.25;2.95;;;24.20;66.10;;;;;;5008972;28;20448;-58
2023/08/25 04:21:31;;;;;;;4.90;3.85;;;24.20;66.30;;;;;;5000301;28;20030;-59
2023/08/25 04:23:56;;;;;;;6.28;3.58;;;24.20;66.60;;;;;;5008350;28;20517;-60
2023/08/25 04:26:22;;;;;;;7.35;3.65;;;24.20;66.30;;;;;;5008453;28;20029;-62
2023/08/25 04:28:47;;;;;;;5.97;3.47;;;24.20;66.40;;;;;;5008048;28;20153;-56
2023/08/25 04:31:13;;;;;;;3.67;3.30;;;24.10;66.40;;;;;;5004976;28;20508;-58
2023/08/25 04:33:39;;;;;;;3.95;3.25;;;24.10;66.50;;;;;;5008125;28;20042;-62
2023/08/25 04:36:04;;;;;;;7.80;3.28;;;24.10;66.40;;;;;;5017391;28;20076;-63
2023/08/25 04:38:30;;;;;;;5.07;3.72;;;24.10;66.80;;;;;;5015950;28;20132;-62
2023/08/25 04:40:55;;;;;;;5.05;3.10;;;24.10;68.10;;;;;;5011833;28;20029;-56
2023/08/25 04:43:20;;;;;;;4.72;3.22;;;24.10;67.80;;;;;;5010570;28;21144;-62
2023/08/25 04:45:46;;;;;;;3.20;2.60;;;24.10;67.80;;;;;;5010518;28;20429;-62
2023/08/25 04:48:12;;;;;;;4.93;2.80;;;24.00;67.80;;;;;;5006071;28;20049;-63
2023/08/25 04:50:38;;;;;;;4.07;2.85;;;24.10;67.70;;;;;;5006446;28;20068;-56
2023/08/25 04:53:03;;;;;;;4.03;3.08;;;24.10;67.50;;;;;;5006961;28;20061;-63
2023/08/25 04:55:29;;;;;;;5.47;2.90;;;24.10;67.30;;;;;;5006168;28;20054;-56
2023/08/25 04:57:55;;;;;;;5.05;3.10;;;24.10;67.30;;;;;;5005376;28;20141;-62
2023/08/25 05:00:21;;;;;;;4.47;3.17;;;24.10;67.20;;;;;;5000616;28;20076;-62
2023/08/25 05:02:48;;;;;;;3.50;2.95;;;24.10;67.10;;;;;;5005840;28;20515;-63
2023/08/25 05:05:16;;;;;;;4.13;3.10;;;24.10;67.00;;;;;;5014878;28;20188;-62
2023/08/25 05:07:42;;;;;;;4.38;2.67;;;24.20;67.80;;;;;;5007892;28;20034;-60
2023/08/25 05:10:09;;;;;;;3.58;2.72;;;24.10;67.70;;;;;;5012149;28;20163;-63
2023/08/25 05:12:34;;;;;;;3.90;2.63;;;24.10;67.80;;;;;;5011617;28;20061;-64
2023/08/25 05:15:00;;;;;;;3.53;2.42;;;24.10;67.80;;;;;;5013029;28;20068;-58
2023/08/25 05:17:26;;;;;;;5.35;2.90;;;24.10;67.90;;;;;;5016099;28;20045;-56
2023/08/25 05:19:52;;;;;;;3.28;2.55;;;24.20;67.80;;;;;;5013749;28;20030;-61
2023/08/25 05:22:18;;;;;;;5.28;2.70;;;24.10;68.00;;;;;;5011293;28;20026;-58
2023/08/25 05:24:43;;;;;;;4.88;2.95;;;24.10;68.00;;;;;;5007756;28;20045;-65
2023/08/25 05:27:09;;;;;;;2.90;2.53;;;24.20;68.00;;;;;;5006244;28;20029;-56
2023/08/25 05:29:35;;;;;;;3.50;2.88;;;24.20;68.30;;;;;;5004428;28;20034;-64
2023/08/25 05:32:01;;;;;;;3.95;2.20;;;24.10;68.10;;;;;;4999312;28;20456;-60
2023/08/25 05:34:27;;;;;;;4.00;2.97;;;24.10;68.40;;;;;;5006749;28;20053;-59
2023/08/25 05:36:53;;;;;;;5.15;2.45;;;24.10;68.50;;;;;;5006785;28;20041;-61
2023/08/25 05:39:21;;;;;;;3.47;2.72;;;24.20;68.50;;;;;;5006914;28;20030;-63
2023/08/25 05:41:47;;;;;;;4.97;2.70;;;24.20;68.60;;;;;;5006467;28;20421;-57
2023/08/25 05:44:12;;;;;;;5.28;2.67;;;24.10;68.60;;;;;;5006784;28;20084;-58
2023/08/25 05:46:39;;;;;;;3.65;2.28;;;24.10;68.60;;;;;;5006321;28;20038;-64
2023/08/25 05:49:05;;;;;;;3.92;2.63;;;24.10;68.60;;;;;;5008498;28;20041;-61
2023/08/25 05:51:31;;;;;;;4.13;2.38;;;24.00;68.80;;;;;;5007237;28;20416;-60
2023/08/25 05:53:56;;;;;;;3.33;2.30;;;24.00;68.70;;;;;;5006320;28;20160;-64
2023/08/25 05:56:22;;;;;;;5.60;2.60;;;24.10;68.90;;;;;;5006761;28;20037;-65
2023/08/25 05:58:47;;;;;;;5.00;2.78;;;24.00;68.90;;;;;;5005425;28;20038;-64
2023/08/25 06:01:12;;;;;;;3.35;2.05;;;24.00;68.90;;;;;;5005772;28;20128;-61
2023/08/25 06:03:38;;;;;;;6.28;2.53;;;24.10;69.00;;;;;;5008185;28;20026;-63
2023/08/25 06:06:04;;;;;;;3.65;2.88;;;24.10;69.00;;;;;;4997265;28;20441;-63
2023/08/25 06:08:30;;;;;;;4.88;2.47;;;24.10;69.10;;;;;;5006895;28;20037;-64
2023/08/25 06:10:56;;;;;;;3.85;2.58;;;24.10;69.00;;;;;;5006940;28;20584;-64
2023/08/25 06:13:22;;;;;;;3.83;2.33;;;24.10;69.10;;;;;;5008436;28;20026;-63
2023/08/25 06:15:49;;;;;;;4.55;2.70;;;24.10;69.00;;;;;;5006412;28;20532;-59
2023/08/25 06:18:15;;;;;;;4.28;2.63;;;24.10;69.10;;;;;;4999383;28;20044;-63
2023/08/25 06:20:41;;;;;;;6.72;2.40;;;24.10;69.30;;;;;;5003053;28;20038;-63
2023/08/25 06:23:07;;;;;;;4.28;2.47;;;24.10;69.20;;;;;;5004822;28;20044;-62
2023/08/25 06:25:33;;;;;;;5.55;2.50;;;24.10;69.10;;;;;;5003805;28;20057;-65
2023/08/25 06:27:59;;;;;;;4.00;2.72;;;24.10;69.30;;;;;;5004311;28;20500;-63
2023/08/25 06:30:26;;;;;;;3.63;2.97;;;24.10;69.40;;;;;;5000505;28;20022;-64
2023/08/25 06:32:52;;;;;;;3.50;2.55;;;24.10;69.50;;;;;;5003291;28;20064;-61
2023/08/25 06:35:18;;;;;;;5.97;3.10;;;24.10;69.50;;;;;;5005164;28;20029;-61
2023/08/25 06:37:44;;;;;;;4.13;3.70;;;24.10;69.40;;;;;;4992387;28;20497;-63
2023/08/25 06:40:10;;;;;;;3.35;2.45;;;24.10;69.50;;;;;;5002577;28;20041;-61
2023/08/25 06:42:37;;;;;;;3.85;2.70;;;24.10;69.70;;;;;;5002931;28;20029;-63
2023/08/25 06:45:03;;;;;;;4.10;2.72;;;24.10;69.60;;;;;;5002799;28;20352;-62
2023/08/25 06:47:29;;;;;;;4.93;3.38;;;24.10;69.60;;;;;;5002622;28;20492;-63
2023/08/25 06:49:54;;;;;;;4.72;2.90;;;24.10;69.50;;;;;;5003571;28;20038;-61
2023/08/25 06:52:21;;;;;;;4.10;3.15;;;24.10;69.70;;;;;;5005539;28;20038;-64
2023/08/25 06:54:46;;;;;;;4.72;2.80;;;24.10;70.00;;;;;;5000013;28;20030;-64
2023/08/25 06:57:12;;;;;;;6.50;3.15;;;24.10;70.00;;;;;;5002711;28;20349;-64
2023/08/25 06:59:38;;;;;;;3.88;2.50;;;24.20;70.20;;;;;;5006342;28;20407;-62
2023/08/25 07:02:04;;;;;;;4.80;3.22;;;24.20;70.40;;;;;;5008105;28;20385;-64
2023/08/25 07:04:29;;;;;;;4.63;2.83;;;24.20;70.30;;;;;;5012006;28;20436;-62
2023/08/25 07:06:55;;;;;;;7.78;2.97;;;24.20;70.00;;;;;;4984441;28;20168;-64
2023/08/25 07:09:21;;;;;;;5.18;3.17;;;24.20;69.90;;;;;;5006782;28;20037;-63
2023/08/25 07:11:46;;;;;;;3.45;2.70;;;24.20;70.20;;;;;;5004853;28;20515;-63
2023/08/25 07:14:12;;;;;;;4.55;2.75;;;24.20;70.10;;;;;;5009069;28;20057;-65
2023/08/25 07:16:37;;;;;;;5.93;3.15;;;24.20;70.10;;;;;;5006287;28;20179;-63
2023/08/25 07:19:03;;;;;;;5.43;3.20;;;24.20;70.30;;;;;;5004695;28;20452;-63
2023/08/25 07:21:29;;;;;;;4.18;2.70;;;24.20;70.40;;;;;;4970118;28;20094;-60
2023/08/25 07:23:55;;;;;;;6.43;3.28;;;24.20;70.10;;;;;;4955086;28;20109;-62
2023/08/25 07:26:21;;;;;;;6.10;3.15;;;24.20;70.20;;;;;;5010787;28;20030;-63
2023/08/25 07:28:47;;;;;;;4.88;2.97;;;24.20;70.20;;;;;;5005354;28;20040;-62
2023/08/25 07:31:12;;;;;;;8.57;3.30;;;24.20;69.90;;;;;;5010974;28;20481;-63
2023/08/25 07:33:38;;;;;;;4.18;2.92;;;24.20;70.00;;;;;;5011554;28;20021;-60
2023/08/25 07:36:04;;;;;;;5.35;3.08;;;24.20;69.60;;;;;;5010591;28;20040;-63
2023/08/25 07:38:29;;;;;;;4.88;2.60;;;24.20;69.90;;;;;;5010847;28;20068;-62
2023/08/25 07:40:56;;;;;;;3.80;2.63;;;24.20;69.70;;;;;;5012244;28;20045;-65
2023/08/25 07:43:22;;;;;;;4.38;2.67;;;24.20;69.60;;;;;;5010671;28;20061;-63
2023/08/25 07:45:48;;;;;;;5.13;3.10;;;24.20;69.60;;;;;;5009708;28;20117;-64
2023/08/25 07:48:13;;;;;;;6.00;3.05;;;24.20;69.60;;;;;;5011916;28;20330;-63
2023/08/25 07:50:40;;;;;;;4.85;2.97;;;24.20;69.70;;;;;;5008637;28;20030;-64
2023/08/25 07:53:05;;;;;;;5.55;2.45;;;24.20;69.50;;;;;;5010674;28;20113;-64
2023/08/25 07:55:32;;;;;;;6.60;2.92;;;24.30;69.50;;;;;;5011168;28;20531;-63
2023/08/25 07:57:57;;;;;;;4.53;2.95;;;24.30;69.30;;;;;;5008886;28;20061;-61
2023/08/25 08:00:23;;;;;;;4.30;2.60;;;24.30;69.30;;;;;;5009437;28;20057;-63
2023/08/25 08:02:50;;;;;;;4.22;3.05;;;24.30;69.70;;;;;;5010600;28;20037;-61
2023/08/25 08:05:17;;;;;;;4.28;2.95;;;24.30;69.60;;;;;;5016040;28;20030;-63
2023/08/25 08:07:47;;;;;;;5.70;2.47;;;24.30;69.60;;;;;;5014940;28;20121;-62
2023/08/25 08:10:13;;;;;;;3.90;2.50;;;24.30;69.30;;;;;;5009054;28;20124;-61
2023/08/25 08:12:39;;;;;;;2.55;2.20;;;24.30;69.10;;;;;;5008651;28;20137;-64
2023/08/25 08:15:06;;;;;;;4.07;2.70;;;24.30;69.20;;;;;;5009136;28;20084;-64
2023/08/25 08:17:31;;;;;;;4.28;2.50;;;24.30;69.10;;;;;;5011055;28;20112;-63
2023/08/25 08:19:57;;;;;;;6.13;3.03;;;24.30;69.00;;;;;;5006491;28;20164;-64
2023/08/25 08:22:23;;;;;;;7.38;2.90;;;24.30;69.00;;;;;;5005081;28;20026;-64
2023/08/25 08:24:49;;;;;;;3.92;2.40;;;24.30;68.90;;;;;;5007554;28;20034;-64
2023/08/25 08:27:15;;;;;;;2.97;2.60;;;24.30;68.70;;;;;;5009393;28;20592;-64
2023/08/25 08:29:41;;;;;;;3.22;2.40;;;24.30;68.80;;;;;;5011697;28;20277;-63
2023/08/25 08:32:07;;;;;;;3.55;2.28;;;24.40;69.00;;;;;;5014645;28;20211;-64
2023/08/25 08:34:33;;;;;;;2.67;2.20;;;24.30;68.80;;;;;;5011341;28;20105;-64
2023/08/25 08:36:59;;;;;;;5.50;2.60;;;24.40;68.80;;;;;;5014375;28;20464;-61
2023/08/25 08:39:24;;;;;;;4.95;2.60;;;24.40;69.00;;;;;;4992548;28;20026;-63
2023/08/25 08:41:52;;;;;;;3.90;2.30;;;24.40;68.50;;;;;;5007186;28;20406;-64
2023/08/25 08:44:19;;;;;;;3.13;2.25;;;24.40;68.30;;;;;;5007956;28;20057;-62
2023/08/25 08:46:47;;;;;;;4.43;2.47;;;24.50;68.50;;;;;;5009793;28;20569;-63
2023/08/25 08:49:14;;;;;;;3.15;2.45;;;24.50;68.30;;;;;;5008087;28;20041;-63
2023/08/25 08:51:41;;;;;;;4.35;2.40;;;24.50;68.20;;;;;;5006094;28;20030;-63
2023/08/25 08:54:07;;;;;;;4.50;2.70;;;24.40;68.40;;;;;;5005156;28;20034;-64
2023/08/25 08:56:34;;;;;;;5.00;2.50;;;24.50;68.70;;;;;;5009300;28;20065;-63
2023/08/25 08:59:00;;;;;;;4.10;2.22;;;24.50;68.30;;;;;;5012533;28;20029;-65
2023/08/25 09:01:26;;;;;;;5.95;2.55;;;24.50;68.30;;;;;;5010542;28;20181;-64
2023/08/25 09:03:53;;;;;;;5.45;2.00;;;24.50;68.30;;;;;;5016175;28;20029;-63
2023/08/25 09:06:19;;;;;;;4.28;2.30;;;24.50;68.10;;;;;;5014495;28;20037;-62
2023/08/25 09:08:46;;;;;;;2.95;2.20;;;24.50;68.00;;;;;;5007349;28;20033;-63
2023/08/25 09:11:15;;;;;;;4.60;2.30;;;24.50;67.80;;;;;;5008259;28;20026;-64
2023/08/25 09:13:52;;;;;;;6.28;2.75;;;24.50;67.60;;;;;;5003406;28;20092;-63
2023/08/25 09:16:18;;;;;;;6.13;2.63;;;24.50;67.60;;;;;;5006430;28;20030;-62
2023/08/25 09:18:46;;;;;;;5.20;2.88;;;24.50;67.60;;;;;;5001055;28;20198;-63
2023/08/25 09:21:21;;;;;;;5.05;2.80;;;24.50;67.60;;;;;;5002065;28;20045;-62
2023/08/25 09:23:59;;;;;;;7.90;2.92;;;24.50;67.70;;;;;;5003949;28;20117;-62
2023/08/25 09:26:27;;;;;;;4.47;2.28;;;24.50;67.90;;;;;;4992622;28;20035;-63
2023/08/25 09:28:53;;;;;;;6.00;3.13;;;24.50;68.00;;;;;;5002580;28;20030;-62
2023/08/25 09:31:29;;;;;;;3.95;2.80;;;24.50;67.80;;;;;;5001437;28;20032;-62
2023/08/25 09:34:00;;;;;;;5.60;2.85;;;24.50;68.00;;;;;;4996053;28;20481;-64
2023/08/25 09:36:26;;;;;;;6.40;2.80;;;24.50;68.00;;;;;;5001035;28;20042;-61
2023/08/25 09:38:52;;;;;;;5.15;3.20;;;24.50;67.90;;;;;;4999316;28;20034;-64
2023/08/25 09:41:31;;;;;;;4.28;2.67;;;24.50;68.10;;;;;;5001981;28;20064;-61
2023/08/25 09:44:01;;;;;;;5.22;3.40;;;24.50;68.20;;;;;;4995802;28;20500;-64
2023/08/25 09:46:33;;;;;;;7.05;2.95;;;24.50;68.40;;;;;;4999437;28;20034;-64
2023/08/25 09:49:13;;;;;;;5.30;2.83;;;24.50;68.60;;;;;;4999393;28;20034;-65
2023/08/25 09:51:47;;;;;;;5.38;3.17;;;24.50;68.50;;;;;;5006124;28;20046;-64
2023/08/25 09:54:18;;;;;;;4.75;2.88;;;24.60;68.60;;;;;;5005172;28;20605;-63
2023/08/25 09:56:47;;;;;;;4.82;3.20;;;24.60;68.50;;;;;;5001017;28;20026;-64
2023/08/25 09:59:14;;;;;;;4.50;3.05;;;24.60;68.70;;;;;;5011057;28;20037;-63
2023/08/25 10:01:41;;;;;;;4.82;3.17;;;24.60;68.40;;;;;;5005599;28;20037;-64
2023/08/25 10:04:07;;;;;;;7.57;3.40;;;24.60;68.60;;;;;;5004871;28;20030;-64
2023/08/25 10:06:35;;;;;;;6.32;3.13;;;24.60;68.60;;;;;;5008275;28;20209;-63
2023/08/25 10:09:01;;;;;;;6.60;3.38;;;24.60;68.70;;;;;;5006455;28;20041;-63
2023/08/25 10:11:29;;;;;;;4.90;3.00;;;24.60;68.80;;;;;;5013491;28;20622;-63
2023/08/25 10:13:56;;;;;;;5.30;3.22;;;24.60;68.80;;;;;;5011042;28;20278;-64
2023/08/25 10:16:26;;;;;;;2.95;2.65;;;24.60;68.80;;;;;;5007730;28;20109;-63
2023/08/25 10:18:56;;;;;;;5.18;2.90;;;24.60;68.80;;;;;;5007849;28;20037;-63
2023/08/25 10:21:23;;;;;;;4.97;2.90;;;24.70;68.80;;;;;;5009155;28;20041;-65
2023/08/25 10:23:52;;;;;;;4.07;2.97;;;24.70;68.60;;;;;;5003218;28;20034;-64
2023/08/25 10:26:18;;;;;;;4.22;3.22;;;24.70;68.80;;;;;;5004486;28;20520;-63
2023/08/25 10:28:45;;;;;;;3.22;2.92;;;24.70;68.60;;;;;;4987566;28;20036;-64
2023/08/25 10:31:11;;;;;;;3.75;3.00;;;24.70;68.90;;;;;;5007224;28;20448;-64
2023/08/25 10:34:03;;;;;;;3.67;3.15;;;24.70;68.50;;;;;;5010482;28;20029;-64
2023/08/25 10:36:29;;;;;;;3.92;3.28;;;24.70;68.60;;;;;;5004209;28;20037;-63
2023/08/25 10:38:54;;;;;;;5.20;3.33;;;24.70;68.40;;;;;;5008607;28;20022;-63
2023/08/25 10:41:21;;;;;;;4.18;3.78;;;24.70;68.60;;;;;;5008997;28;20069;-63
2023/08/25 10:43:54;;;;;;;4.72;2.97;;;24.70;68.50;;;;;;5006566;28;20048;-65
2023/08/25 10:46:22;;;;;;;4.45;3.08;;;24.70;68.50;;;;;;5008111;28;20041;-64
2023/08/25 10:48:52;;;;;;;4.20;3.03;;;24.70;68.50;;;;;;5007001;28;20466;-64
2023/08/25 10:51:20;;;;;;;5.72;3.00;;;24.70;68.50;;;;;;5008300;28;20028;-64
2023/08/25 10:53:49;;;;;;;6.05;3.60;;;24.70;68.50;;;;;;5005042;28;20026;-65
2023/08/25 10:56:17;;;;;;;3.25;2.95;;;24.70;68.40;;;;;;5004459;28;20204;-64
2023/08/25 10:58:54;;;;;;;3.85;3.13;;;24.70;68.20;;;;;;5005614;28;20053;-63
2023/08/25 11:01:19;;;;;;;6.35;3.60;;;24.70;68.00;;;;;;5003157;28;20044;-64
2023/08/25 11:04:04;;;;;;;6.20;3.42;;;24.70;67.80;;;;;;5006395;28;20038;-65
2023/08/25 11:06:40;;;;;;;6.25;3.10;;;24.70;67.80;;;;;;5004885;28;20041;-64
2023/08/25 11:09:08;;;;;;;4.93;3.25;;;24.70;67.70;;;;;;5010617;28;20076;-64
2023/08/25 11:11:36;;;;;;;4.63;3.22;;;24.70;67.60;;;;;;5007602;28;20113;-63
2023/08/25 11:14:02;;;;;;;4.78;3.50;;;24.60;67.50;;;;;;5008359;28;20113;-65
2023/08/25 11:16:28;;;;;;;3.42;2.90;;;24.60;67.60;;;;;;5006987;28;20038;-65
2023/08/25 11:18:53;;;;;;;4.63;3.38;;;24.60;67.60;;;;;;5006930;28;20029;-65
2023/08/25 11:21:26;;;;;;;4.68;3.45;;;24.60;67.50;;;;;;5005629;28;20504;-63
2023/08/25 11:23:52;;;;;;;4.30;3.20;;;24.60;67.50;;;;;;5005398;28;20034;-63
2023/08/25 11:26:18;;;;;;;6.38;3.45;;;24.60;67.90;;;;;;5006252;28;20026;-64
2023/08/25 11:28:49;;;;;;;6.97;3.53;;;24.60;67.70;;;;;;5005368;28;20093;-64
2023/08/25 11:31:15;;;;;;;4.38;3.20;;;24.60;68.00;;;;;;5003964;28;20034;-64
2023/08/25 11:33:41;;;;;;;5.80;2.92;;;24.60;68.30;;;;;;5001938;28;20029;-63
2023/08/25 11:36:07;;;;;;;4.50;2.83;;;24.60;68.50;;;;;;4989294;28;20444;-63
2023/08/25 11:38:32;;;;;;;6.28;3.30;;;24.50;68.30;;;;;;5002846;28;20065;-64
2023/08/25 11:40:58;;;;;;;4.47;3.40;;;24.60;69.20;;;;;;5009474;28;20061;-64
2023/08/25 11:43:32;;;;;;;3.42;3.08;;;24.60;69.60;;;;;;5009424;28;20030;-64
2023/08/25 11:45:58;;;;;;;4.13;3.72;;;24.50;69.20;;;;;;5010156;28;20068;-64
2023/08/25 11:48:24;;;;;;;4.07;3.00;;;24.50;70.20;;;;;;5008425;28;20057;-64
2023/08/25 11:50:50;;;;;;;5.65;3.22;;;24.60;69.40;;;;;;5010994;28;20034;-63
2023/08/25 11:53:16;;;;;;;5.93;3.45;;;24.60;69.50;;;;;;5007030;28;20025;-63
2023/08/25 11:55:42;;;;;;;6.85;3.10;;;24.60;70.10;;;;;;5007754;28;20088;-63
2023/08/25 11:58:09;;;;;;;9.55;3.38;;;24.50;70.70;;;;;;5010239;28;20033;-64
2023/08/25 12:00:37;;;;;;;8.25;3.65;;;24.60;71.50;;;;;;5006322;28;20044;-64
2023/08/25 12:03:02;;;;;;;6.72;3.90;;;24.50;71.30;;;;;;5008672;28;20352;-64
2023/08/25 12:05:30;;;;;;;7.22;3.80;;;24.50;71.50;;;;;;5006434;28;20475;-63
2023/08/25 12:08:00;;;;;;;8.60;3.65;;;24.50;71.40;;;;;;5005835;28;20058;-64
2023/08/25 12:10:26;;;;;;;7.10;3.83;;;24.50;71.50;;;;;;5005582;28;20076;-64
2023/08/25 12:12:53;;;;;;;6.55;3.90;;;24.50;71.30;;;;;;5009312;28;20117;-64
2023/08/25 12:15:18;;;;;;;6.32;3.50;;;24.50;71.60;;;;;;5010120;28;20030;-64
2023/08/25 12:17:47;;;;;;;5.28;3.05;;;24.50;71.10;;;;;;5006973;28;20036;-62
2023/08/25 12:20:17;;;;;;;6.68;3.88;;;24.60;70.80;;;;;;5008212;28;20038;-63
2023/08/25 12:22:56;;;;;;;4.68;3.33;;;24.60;71.20;;;;;;4974354;28;20208;-64
2023/08/25 12:25:22;;;;;;;8.40;3.13;;;24.60;70.90;;;;;;5002954;28;20117;-65
2023/08/25 12:27:49;;;;;;;4.90;3.50;;;24.60;70.80;;;;;;5011893;28;20089;-64
2023/08/25 12:30:14;;;;;;;5.75;3.50;;;24.60;70.90;;;;;;5010699;28;20030;-64
2023/08/25 12:32:40;;;;;;;4.38;3.17;;;24.70;70.50;;;;;;5005504;28;20109;-65
2023/08/25 12:35:06;;;;;;;5.97;2.90;;;24.60;70.60;;;;;;5009331;28;20556;-64
2023/08/25 12:37:31;;;;;;;4.97;3.85;;;24.60;70.20;;;;;;5005953;28;20474;-64
2023/08/25 12:39:57;;;;;;;7.13;3.40;;;24.60;70.20;;;;;;5010879;28;20077;-64
2023/08/25 12:42:22;;;;;;;6.13;3.03;;;24.70;69.90;;;;;;5013006;28;20018;-65
2023/08/25 12:44:48;;;;;;;4.32;2.90;;;24.60;70.00;;;;;;5012757;28;20422;-64
2023/08/25 12:47:14;;;;;;;5.63;3.85;;;24.60;69.90;;;;;;5012854;28;20051;-64